EmailTwitter


Observations de surface / Canada / CYYZ (71624)

Régions: Québec | Canada | États-Unis | Europe | France | UK | Ailleurs
Station
Affichage
Infos & localisation pour CYYZ (71624) | Aide pour décoder les METARs

Observations prises le 2020-05-27 à 05H00 UTC à TORONTO A, ON (CYYZ)

Etat du ciel: dégagé.

Température: 22.0 Celsius

Point de rosée: 17.0 Celsius

Humidité relative: 73%

Indice Humidex: 27.

Vents: Calme à 0 km/h ou 0 noeuds.

Pression au niveau moyen de la mer: 101.84 kilopascals.

Calage altimétrique: 101.86 kilopascals ou 30.08 pouces de mercure.

Visibilité horizontale: 15.00 milles terrestres ou 24.00 kilomètres.

Observation METAR:

CYYZ 270500Z 00000KT 15SM SKC 22/17 A3008 RMK SLP184 DENSITY ALT 1300FT=